Time;durP1;ratioP1;P1;durP2;ratioP2;P2;SDS_P1;SDS_P2;PMS_P1;PMS_P2;Temp;Humidity;BMP_temperature;BMP_pressure;BME280_temperature;BME280_humidity;BME280_pressure;Samples;Min_cycle;Max_cycle;Signal;HPM_P1;HPM_P2
2023/02/03 00:01:41;;;;;;;7.65;2.70;;;;;;;2.75;100.00;97302.84;5031738;28;20505;-78
2023/02/03 00:04:07;;;;;;;11.52;2.80;;;;;;;2.73;100.00;97299.59;5022182;28;20048;-78
2023/02/03 00:06:34;;;;;;;8.50;3.03;;;;;;;2.75;100.00;97294.78;5020265;28;20525;-77
2023/02/03 00:09:02;;;;;;;9.32;3.40;;;;;;;2.80;100.00;97297.53;5022227;28;20049;-78
2023/02/03 00:11:30;;;;;;;6.82;2.72;;;;;;;2.81;100.00;97299.16;5011904;28;20513;-77
2023/02/03 00:13:57;;;;;;;7.45;2.55;;;;;;;2.81;100.00;97288.41;5019881;28;20124;-78
2023/02/03 00:16:23;;;;;;;8.55;3.00;;;;;;;2.82;100.00;97284.69;5014277;28;20056;-78
2023/02/03 00:18:50;;;;;;;7.78;2.58;;;;;;;2.88;100.00;97291.78;5014682;28;20038;-78
2023/02/03 00:21:16;;;;;;;7.20;2.88;;;;;;;2.88;100.00;97286.38;5010803;28;20133;-78
2023/02/03 00:23:43;;;;;;;7.68;2.83;;;;;;;2.95;100.00;97288.91;5019442;28;20502;-79
2023/02/03 00:26:13;;;;;;;8.82;2.67;;;;;;;2.96;100.00;97277.06;5018994;28;20045;-78
2023/02/03 00:28:40;;;;;;;5.75;3.00;;;;;;;2.99;100.00;97279.28;5012447;28;20045;-78
2023/02/03 00:31:14;;;;;;;7.22;2.72;;;;;;;3.03;100.00;97275.03;5018046;28;20428;-81
2023/02/03 00:33:41;;;;;;;7.75;2.60;;;;;;;3.00;100.00;97263.94;5017375;28;20053;-78
2023/02/03 00:36:09;;;;;;;7.45;2.47;;;;;;;3.02;100.00;97275.28;5027232;28;20049;-78
2023/02/03 00:38:35;;;;;;;11.82;2.35;;;;;;;3.00;100.00;97275.53;5011570;28;20037;-78
2023/02/03 00:41:02;;;;;;;7.55;2.88;;;;;;;3.00;100.00;97264.75;5011812;28;20053;-78
2023/02/03 00:43:30;;;;;;;10.07;2.80;;;;;;;3.05;100.00;97272.09;5015493;28;20057;-79
2023/02/03 00:45:57;;;;;;;4.32;2.28;;;;;;;3.06;100.00;97274.53;5023213;28;20050;-79
2023/02/03 00:48:23;;;;;;;7.18;2.35;;;;;;;3.06;100.00;97274.53;5022220;28;20045;-78
2023/02/03 00:50:50;;;;;;;8.50;2.83;;;;;;;3.13;100.00;97293.19;5022843;28;20477;-79
2023/02/03 00:53:16;;;;;;;7.68;2.35;;;;;;;3.09;100.00;97284.00;5017998;28;20049;-79
2023/02/03 00:55:43;;;;;;;8.35;2.33;;;;;;;3.02;100.00;97294.09;5019064;28;20050;-78
2023/02/03 00:58:10;;;;;;;9.25;2.60;;;;;;;2.99;100.00;97283.84;5010310;28;20046;-78
2023/02/03 01:00:38;;;;;;;6.47;2.78;;;;;;;2.99;100.00;97289.22;5022046;28;20052;-78
2023/02/03 01:03:04;;;;;;;5.88;2.40;;;;;;;2.97;100.00;97291.34;5022103;28;20046;-80
2023/02/03 01:05:31;;;;;;;5.35;2.30;;;;;;;2.94;100.00;97281.09;5030696;28;20053;-84
2023/02/03 01:07:57;;;;;;;7.63;2.28;;;;;;;2.92;100.00;97286.69;5029575;28;20053;-79
2023/02/03 01:10:24;;;;;;;7.07;2.03;;;;;;;2.87;100.00;97282.06;5018624;28;20038;-79
2023/02/03 01:12:50;;;;;;;6.90;2.35;;;;;;;2.87;100.00;97275.84;5019036;28;20670;-78
2023/02/03 01:15:17;;;;;;;7.60;2.42;;;;;;;2.90;100.00;97285.31;5014631;28;20045;-80
2023/02/03 01:17:45;;;;;;;7.95;2.40;;;;;;;2.90;100.00;97279.94;5011326;28;20042;-78
2023/02/03 01:20:12;;;;;;;5.68;2.42;;;;;;;2.86;100.00;97266.16;5023966;28;20060;-78
2023/02/03 01:22:40;;;;;;;6.18;2.30;;;;;;;2.89;100.00;97268.38;5019437;28;20069;-79
2023/02/03 01:25:07;;;;;;;5.32;2.00;;;;;;;2.83;100.00;97264.78;5028137;28;20034;-78
2023/02/03 01:27:34;;;;;;;6.28;1.95;;;;;;;2.92;100.00;97267.84;5017502;28;20049;-80
2023/02/03 01:30:00;;;;;;;7.30;2.00;;;;;;;2.91;100.00;97265.44;5011337;28;20045;-79
2023/02/03 01:32:27;;;;;;;7.47;2.40;;;;;;;2.94;100.00;97264.94;5024785;28;20406;-78
2023/02/03 01:34:55;;;;;;;4.82;2.00;;;;;;;2.96;100.00;97260.13;5019160;28;20421;-79
2023/02/03 01:37:21;;;;;;;5.78;1.95;;;;;;;2.99;100.00;97263.13;5013167;28;20363;-79
2023/02/03 01:39:48;;;;;;;4.40;1.90;;;;;;;2.98;100.00;97261.50;5024424;28;20046;-78
2023/02/03 01:42:15;;;;;;;4.28;2.00;;;;;;;3.02;100.00;97256.44;5025493;28;20408;-81
2023/02/03 01:44:46;;;;;;;4.32;1.80;;;;;;;3.01;100.00;97262.88;5016263;28;20394;-77
2023/02/03 01:47:22;;;;;;;5.75;2.08;;;;;;;3.09;99.87;97262.47;5010305;28;20226;-81
2023/02/03 01:49:53;;;;;;;4.53;1.90;;;;;;;3.01;100.00;97268.25;5018813;28;20617;-82
2023/02/03 01:52:21;;;;;;;3.78;1.80;;;;;;;3.03;99.89;97258.09;5026816;28;20046;-78
2023/02/03 01:54:50;;;;;;;7.38;1.60;;;;;;;3.05;99.95;97250.56;5018121;28;20050;-78
2023/02/03 01:57:21;;;;;;;6.65;2.03;;;;;;;3.09;99.35;97262.47;5029364;28;20046;-78
2023/02/03 01:59:49;;;;;;;3.40;1.48;;;;;;;3.12;98.09;97254.69;5032762;28;20064;-78
2023/02/03 02:02:16;;;;;;;5.00;1.77;;;;;;;3.15;97.84;97256.09;5019945;28;20049;-78
2023/02/03 02:04:53;;;;;;;6.28;2.22;;;;;;;3.20;97.11;97258.03;5012953;28;20517;-79
2023/02/03 02:07:21;;;;;;;6.03;2.03;;;;;;;3.22;96.90;97250.53;5025011;28;20048;-77
2023/02/03 02:09:48;;;;;;;6.03;1.60;;;;;;;3.33;94.98;97252.28;5011426;28;20056;-78
2023/02/03 02:12:15;;;;;;;3.83;1.60;;;;;;;3.34;95.26;97254.75;5026659;28;20042;-79
2023/02/03 02:14:44;;;;;;;5.78;1.77;;;;;;;3.32;95.20;97256.84;5011758;28;20038;-77
2023/02/03 02:17:18;;;;;;;5.60;1.73;;;;;;;3.32;95.50;97256.03;5010171;28;20037;-78
2023/02/03 02:20:09;;;;;;;2.70;1.70;;;;;;;3.30;95.40;97264.38;5027358;28;20045;-78
2023/02/03 02:22:53;;;;;;;5.57;1.85;;;;;;;3.32;95.64;97266.81;5024636;28;20068;-78
2023/02/03 02:25:34;;;;;;;;;;;;;;;3.31;95.48;97266.00;5021619;28;20037;-80
2023/02/03 02:28:39;;;;;;;4.22;1.50;;;;;;;3.38;93.96;97255.84;5022731;28;19921;-81
2023/02/03 02:31:22;;;;;;;8.73;2.20;;;;;;;3.43;93.81;97267.75;5020613;28;20069;-79
2023/02/03 02:33:59;;;;;;;9.75;1.77;;;;;;;3.39;94.40;97249.44;5017450;28;20084;-77
2023/02/03 02:36:32;;;;;;;4.95;1.50;;;;;;;3.45;93.50;97262.97;5009458;28;20053;-79
2023/02/03 02:39:08;;;;;;;4.60;1.75;;;;;;;3.43;93.94;97260.50;5018161;28;20057;-84
2023/02/03 02:41:42;;;;;;;6.10;1.70;;;;;;;3.45;93.67;97261.06;5015041;28;20624;-80
2023/02/03 02:44:14;;;;;;;3.20;1.30;;;;;;;3.49;93.18;97262.19;5014164;28;20405;-79
2023/02/03 02:46:46;;;;;;;7.95;1.70;;;;;;;3.51;93.07;97267.34;5025330;28;20045;-77
2023/02/03 02:49:19;;;;;;;4.15;1.52;;;;;;;3.55;92.34;97254.97;5026832;28;20042;-77
2023/02/03 02:51:48;;;;;;;4.70;1.90;;;;;;;3.63;90.83;97255.34;5016832;28;20049;-78
2023/02/03 02:54:18;;;;;;;5.75;1.90;;;;;;;3.67;90.50;97244.91;5028757;28;20489;-78
2023/02/03 02:56:49;;;;;;;3.65;1.80;;;;;;;3.62;91.38;97239.47;5022013;28;20044;-80
2023/02/03 02:59:18;;;;;;;6.95;1.77;;;;;;;3.63;90.80;97243.78;5018971;28;20045;-80
2023/02/03 03:01:45;;;;;;;3.75;1.60;;;;;;;3.63;91.30;97247.28;5018887;28;20064;-77
2023/02/03 03:04:17;;;;;;;4.45;1.65;;;;;;;3.60;91.58;97242.41;5011723;28;20046;-78
2023/02/03 03:06:47;;;;;;;3.00;1.45;;;;;;;3.67;90.40;97239.53;5020308;28;20045;-77
2023/02/03 03:09:18;;;;;;;3.88;1.58;;;;;;;3.72;89.80;97249.53;5029188;28;20413;-79
2023/02/03 03:12:02;;;;;;;4.43;1.40;;;;;;;3.74;90.10;97231.22;5011925;28;20038;-76
2023/02/03 03:14:31;;;;;;;5.78;1.77;;;;;;;3.75;89.56;97239.06;5021815;28;20048;-78
2023/02/03 03:17:02;;;;;;;8.05;1.92;;;;;;;3.75;89.37;97238.25;5025066;28;20041;-80
2023/02/03 03:19:34;;;;;;;3.88;1.40;;;;;;;3.78;88.26;97226.97;5014218;28;20049;-80
2023/02/03 03:22:03;;;;;;;4.47;1.60;;;;;;;3.79;88.64;97234.78;5014485;28;20553;-79
2023/02/03 03:24:33;;;;;;;4.05;1.50;;;;;;;3.78;88.61;97240.44;5018465;28;20033;-78
2023/02/03 03:27:04;;;;;;;3.33;1.60;;;;;;;3.74;88.70;97237.44;5025445;28;20046;-78
2023/02/03 03:29:34;;;;;;;6.07;1.73;;;;;;;3.76;88.64;97226.41;5016098;28;20568;-80
2023/02/03 03:32:02;;;;;;;4.80;1.48;;;;;;;3.81;87.73;97227.28;5021838;28;20038;-81
2023/02/03 03:34:31;;;;;;;6.30;1.30;;;;;;;3.84;87.38;97217.88;5020187;28;20037;-82
2023/02/03 03:37:03;;;;;;;4.90;1.45;;;;;;;3.80;88.18;97216.75;5025297;28;20049;-78
2023/02/03 03:39:36;;;;;;;4.45;1.50;;;;;;;3.74;88.57;97207.81;5017452;28;20048;-78
2023/02/03 03:42:10;;;;;;;7.45;1.40;;;;;;;3.80;87.97;97214.06;5024827;28;20045;-77
2023/02/03 03:44:39;;;;;;;;;;;;;;;3.84;87.12;97204.41;5019710;28;20029;-77
2023/02/03 03:47:12;;;;;;;3.13;1.17;;;;;;;3.82;86.99;97215.44;5023262;28;19921;-81
2023/02/03 03:49:44;;;;;;;6.00;1.70;;;;;;;3.83;87.53;97218.94;5013525;28;20414;-77
2023/02/03 03:52:15;;;;;;;4.25;2.22;;;;;;;3.86;87.15;97232.72;5022538;28;20473;-77
2023/02/03 03:54:43;;;;;;;4.47;1.42;;;;;;;3.83;87.54;97233.22;5025337;28;20045;-78
2023/02/03 03:57:15;;;;;;;3.03;1.20;;;;;;;3.89;87.04;97220.63;5031219;28;20041;-77
2023/02/03 03:59:46;;;;;;;4.30;1.33;;;;;;;3.89;86.23;97218.75;5019654;28;20044;-80
2023/02/03 04:02:14;;;;;;;6.57;1.63;;;;;;;3.85;86.58;97222.19;5020434;28;20053;-80
2023/02/03 04:04:44;;;;;;;6.72;1.63;;;;;;;3.81;86.62;97219.22;5013902;28;20045;-77
2023/02/03 04:07:12;;;;;;;6.15;1.25;;;;;;;3.86;86.10;97232.72;5019845;28;20041;-80
2023/02/03 04:09:41;;;;;;;5.63;1.83;;;;;;;3.88;85.45;97233.28;5019606;28;20424;-80
2023/02/03 04:12:16;;;;;;;3.13;1.27;;;;;;;3.86;86.09;97248.91;5020497;28;20046;-82
2023/02/03 04:14:42;;;;;;;3.63;1.10;;;;;;;3.83;86.33;97230.53;5012725;28;20057;-79
2023/02/03 04:17:09;;;;;;;2.63;1.15;;;;;;;3.84;86.15;97252.91;5030087;28;20053;-79
2023/02/03 04:19:35;;;;;;;2.08;1.65;;;;;;;3.85;86.18;97263.41;5020678;28;20049;-79
2023/02/03 04:22:03;;;;;;;6.97;1.45;;;;;;;3.79;86.57;97256.34;5020270;28;20042;-79
2023/02/03 04:24:30;;;;;;;3.70;1.20;;;;;;;3.80;86.42;97252.59;5021812;28;20093;-79
2023/02/03 04:26:56;;;;;;;6.75;1.50;;;;;;;3.82;86.14;97253.16;5016608;28;20045;-77
2023/02/03 04:29:23;;;;;;;4.05;1.40;;;;;;;3.82;86.33;97244.28;5015484;28;20049;-79
2023/02/03 04:31:52;;;;;;;6.90;1.52;;;;;;;3.80;86.03;97222.13;5025441;28;20049;-80
2023/02/03 04:34:18;;;;;;;3.70;1.27;;;;;;;3.79;86.08;97213.25;5014523;28;20240;-79
2023/02/03 04:36:44;;;;;;;7.20;1.50;;;;;;;3.78;85.93;97222.41;5017420;28;20046;-80
2023/02/03 04:39:12;;;;;;;2.90;1.30;;;;;;;3.79;86.08;97245.56;5014175;28;20068;-79
2023/02/03 04:41:39;;;;;;;3.25;1.45;;;;;;;3.79;85.83;97259.03;5019293;28;20045;-79
2023/02/03 04:44:05;;;;;;;7.47;1.45;;;;;;;3.79;86.55;97267.13;5029617;28;20045;-78
2023/02/03 04:46:32;;;;;;;3.00;1.40;;;;;;;3.77;86.27;97279.22;5028843;28;20042;-77
2023/02/03 04:48:59;;;;;;;5.53;1.50;;;;;;;3.75;86.78;97259.78;5013304;28;20065;-79
2023/02/03 04:51:25;;;;;;;6.78;1.70;;;;;;;3.74;85.91;97253.59;5020825;28;20042;-78
2023/02/03 04:53:52;;;;;;;5.05;1.60;;;;;;;3.79;84.75;97264.44;5013853;28;20049;-77
2023/02/03 04:56:20;;;;;;;4.68;1.65;;;;;;;3.76;85.26;97264.09;5021035;28;20052;-80
2023/02/03 04:58:46;;;;;;;2.58;1.20;;;;;;;3.78;85.33;97265.50;5021508;28;20052;-84
2023/02/03 05:01:13;;;;;;;3.97;1.45;;;;;;;3.76;85.80;97261.41;5027511;28;20053;-81
2023/02/03 05:03:39;;;;;;;3.95;1.30;;;;;;;3.72;86.31;97271.09;5022022;28;20057;-80
2023/02/03 05:06:06;;;;;;;3.45;1.27;;;;;;;3.70;86.15;97271.31;5022392;28;20144;-82
2023/02/03 05:08:32;;;;;;;30.42;11.18;;;;;;;3.75;85.69;97282.16;5030894;28;20053;-78
2023/02/03 05:11:02;;;;;;;6.43;1.80;;;;;;;3.75;85.46;97268.69;5024309;28;20054;-79
2023/02/03 05:13:30;;;;;;;3.80;1.70;;;;;;;3.71;86.24;97270.28;5031393;28;20041;-79
2023/02/03 05:15:57;;;;;;;5.22;1.45;;;;;;;3.70;86.07;97274.00;5032141;28;20045;-78
2023/02/03 05:18:23;;;;;;;3.50;1.50;;;;;;;3.70;85.74;97267.81;5014731;28;20052;-78
2023/02/03 05:20:50;;;;;;;5.00;1.40;;;;;;;3.67;86.37;97256.50;5016213;28;20169;-79
2023/02/03 05:23:16;;;;;;;2.70;1.17;;;;;;;3.68;86.37;97233.06;5025840;28;20068;-81
2023/02/03 05:25:44;;;;;;;4.00;1.38;;;;;;;3.68;85.90;97233.06;5023124;28;20057;-77
2023/02/03 05:28:10;;;;;;;5.97;1.30;;;;;;;3.63;85.95;97230.31;5028312;28;20505;-78
2023/02/03 05:30:38;;;;;;;5.70;1.52;;;;;;;3.63;86.31;97230.31;5028280;28;20053;-78
2023/02/03 05:33:05;;;;;;;6.65;1.48;;;;;;;3.59;85.89;97230.00;5017932;28;20524;-78
2023/02/03 05:35:32;;;;;;;5.18;1.35;;;;;;;3.62;85.82;97226.00;5018716;28;20049;-78
2023/02/03 05:37:59;;;;;;;5.82;1.50;;;;;;;3.63;85.50;97214.16;5018323;28;20062;-82
2023/02/03 05:43:10;;;;;;;3.58;1.52;;;;;;;3.54;86.51;97218.34;5025827;28;20055;-79
2023/02/03 05:45:38;;;;;;;7.78;1.80;;;;;;;3.54;85.84;97226.41;5014278;28;20035;-80
2023/02/03 05:48:06;;;;;;;5.40;1.35;;;;;;;3.56;85.20;97240.47;5020942;28;20052;-78
2023/02/03 05:50:33;;;;;;;4.32;1.63;;;;;;;3.56;85.63;97229.69;5011128;28;20042;-78
2023/02/03 05:53:00;;;;;;;3.33;1.50;;;;;;;3.56;85.51;97235.91;5027419;28;20052;-78
2023/02/03 05:55:26;;;;;;;2.92;1.42;;;;;;;3.58;85.79;97249.91;5020549;28;20052;-77
2023/02/03 05:57:53;;;;;;;5.13;1.48;;;;;;;3.57;85.80;97244.78;5022861;28;20041;-82
2023/02/03 06:00:22;;;;;;;6.30;1.60;;;;;;;3.61;85.35;97249.41;5010858;28;20579;-77
2023/02/03 06:02:52;;;;;;;4.65;1.30;;;;;;;3.61;85.79;97248.63;5030430;28;20203;-79
2023/02/03 06:05:19;;;;;;;3.72;1.30;;;;;;;3.58;85.44;97211.41;5011243;28;20399;-78
2023/02/03 06:07:46;;;;;;;3.95;1.33;;;;;;;3.55;86.00;97212.72;5025817;28;20071;-80
2023/02/03 06:10:12;;;;;;;6.20;1.50;;;;;;;3.60;84.94;97225.41;5019716;28;20041;-80
2023/02/03 06:12:39;;;;;;;6.82;1.58;;;;;;;3.62;84.66;97218.72;5011737;28;20052;-78
2023/02/03 06:15:06;;;;;;;3.58;1.30;;;;;;;3.61;85.03;97210.91;5027312;28;20536;-79
2023/02/03 06:17:34;;;;;;;5.75;1.35;;;;;;;3.62;85.42;97223.31;5015022;28;20436;-79
2023/02/03 06:20:03;;;;;;;2.72;1.20;;;;;;;3.65;84.97;97244.31;5021229;28;20128;-79
2023/02/03 06:22:29;;;;;;;3.45;1.33;;;;;;;3.62;85.34;97234.06;5012035;28;20594;-80
2023/02/03 06:24:55;;;;;;;5.55;1.40;;;;;;;3.62;85.02;97217.91;5027792;28;20041;-80
2023/02/03 06:27:22;;;;;;;3.13;1.20;;;;;;;3.63;84.78;97230.31;5011275;28;20054;-78
2023/02/03 06:29:49;;;;;;;2.42;1.23;;;;;;;3.63;84.31;97219.53;5018708;28;20042;-78
2023/02/03 06:32:15;;;;;;;5.25;2.28;;;;;;;3.69;83.76;97218.53;5017931;28;20050;-78
2023/02/03 06:34:42;;;;;;;3.13;1.52;;;;;;;3.71;84.33;97221.78;5016029;28;20042;-78
2023/02/03 06:37:10;;;;;;;4.32;1.38;;;;;;;3.64;84.53;97216.59;5019309;28;20038;-78
2023/02/03 06:39:36;;;;;;;3.00;1.05;;;;;;;3.65;84.39;97233.56;5029413;28;20049;-79
2023/02/03 06:42:03;;;;;;;4.22;1.25;;;;;;;3.64;84.40;97226.53;5021039;28;20053;-79
2023/02/03 06:44:30;;;;;;;2.97;1.30;;;;;;;3.64;84.34;97226.53;5017143;28;20056;-82
2023/02/03 06:46:58;;;;;;;3.10;1.08;;;;;;;3.66;83.94;97236.00;5028443;28;20045;-78
2023/02/03 06:49:25;;;;;;;1.67;1.10;;;;;;;3.71;83.17;97235.25;5013352;28;20119;-78
2023/02/03 06:51:52;;;;;;;7.00;1.15;;;;;;;3.73;84.52;97249.28;5021974;28;20133;-77
2023/02/03 06:54:20;;;;;;;4.75;1.13;;;;;;;3.73;83.42;97240.38;5021651;28;20065;-77
2023/02/03 06:56:46;;;;;;;3.70;1.17;;;;;;;3.73;83.69;97240.38;5013724;28;20046;-79
2023/02/03 06:59:13;;;;;;;5.65;1.48;;;;;;;3.74;83.30;97242.81;5012708;28;20045;-80
2023/02/03 07:01:39;;;;;;;5.45;1.17;;;;;;;3.75;83.36;97249.81;5025891;28;20489;-80
2023/02/03 07:04:06;;;;;;;3.42;1.13;;;;;;;3.77;83.19;97253.09;5025166;28;20042;-78
2023/02/03 07:06:33;;;;;;;1.70;0.90;;;;;;;3.79;82.37;97242.88;5033251;28;20053;-78
2023/02/03 07:09:01;;;;;;;2.70;0.95;;;;;;;3.79;83.39;97229.41;5024438;28;20049;-81
2023/02/03 07:11:29;;;;;;;5.18;1.20;;;;;;;3.75;82.88;97217.50;5022799;28;20037;-81
2023/02/03 07:13:55;;;;;;;4.07;1.83;;;;;;;3.77;82.80;97231.56;5017167;28;20042;-81
2023/02/03 07:16:22;;;;;;;3.13;1.15;;;;;;;3.75;83.67;97233.66;5024226;28;20053;-75
2023/02/03 07:18:48;;;;;;;4.35;1.33;;;;;;;3.77;82.60;97220.78;5017893;28;20049;-76
2023/02/03 07:21:16;;;;;;;3.67;0.90;;;;;;;3.82;81.71;97226.22;5022834;28;20041;-78
2023/02/03 07:23:42;;;;;;;2.85;1.25;;;;;;;3.85;81.99;97228.38;5023801;28;20578;-79
2023/02/03 07:26:10;;;;;;;3.20;1.00;;;;;;;3.89;81.72;97226.81;5017899;28;20037;-80
2023/02/03 07:28:38;;;;;;;3.05;1.02;;;;;;;3.90;80.67;97209.59;5020946;28;20056;-79
2023/02/03 07:31:06;;;;;;;2.38;1.00;;;;;;;3.95;81.00;97225.00;5018218;28;20124;-79
2023/02/03 07:33:33;;;;;;;1.33;0.88;;;;;;;3.95;80.75;97219.59;5020884;28;20437;-78
2023/02/03 07:36:00;;;;;;;4.05;1.20;;;;;;;3.90;81.34;97220.38;5030696;28;20038;-77
2023/02/03 07:38:28;;;;;;;2.65;1.27;;;;;;;3.89;81.18;97229.53;5029938;28;20038;-85
2023/02/03 07:40:54;;;;;;;3.03;1.23;;;;;;;3.86;81.94;97224.66;5025923;28;20041;-79
2023/02/03 07:43:21;;;;;;;3.08;1.00;;;;;;;3.90;81.09;97220.38;5027810;28;20046;-91
2023/02/03 07:45:49;;;;;;;6.40;1.40;;;;;;;3.88;81.09;97217.13;5027071;28;20050;-80
2023/02/03 07:48:16;;;;;;;3.53;1.05;;;;;;;3.89;81.13;97210.66;5023678;28;20046;-79
2023/02/03 07:50:44;;;;;;;3.20;1.30;;;;;;;3.90;81.08;97193.41;5023372;28;20397;-79
2023/02/03 07:53:11;;;;;;;2.70;1.15;;;;;;;3.92;80.78;97190.50;5015146;28;20073;-77
2023/02/03 07:55:38;;;;;;;4.18;1.42;;;;;;;3.97;80.67;97187.00;5024918;28;20069;-79
2023/02/03 07:58:05;;;;;;;2.45;1.10;;;;;;;3.96;80.82;97190.78;5010571;28;20081;-79
2023/02/03 08:00:31;;;;;;;5.10;1.30;;;;;;;4.00;80.42;97197.28;5017062;28;20665;-79
2023/02/03 08:02:59;;;;;;;4.22;1.17;;;;;;;4.01;80.61;97186.25;5015767;28;20053;-80
2023/02/03 08:05:26;;;;;;;3.45;1.23;;;;;;;4.01;80.55;97180.03;5012001;28;20053;-83
2023/02/03 08:07:52;;;;;;;4.15;1.05;;;;;;;4.02;80.99;97184.34;5022979;28;20049;-83
2023/02/03 08:10:19;;;;;;;1.92;1.08;;;;;;;4.05;80.72;97200.03;5023264;28;20731;-80
2023/02/03 08:12:46;;;;;;;2.33;1.05;;;;;;;4.08;80.51;97213.00;5023339;28;20132;-83
2023/02/03 08:15:14;;;;;;;8.82;2.58;;;;;;;4.12;80.36;97214.09;5018696;28;20518;-83
2023/02/03 08:17:40;;;;;;;2.60;1.20;;;;;;;4.15;80.46;97219.00;5018538;28;20050;-79
2023/02/03 08:20:10;;;;;;;3.22;0.93;;;;;;;4.20;80.29;97219.03;5026106;28;20049;-79
2023/02/03 08:22:36;;;;;;;2.30;1.00;;;;;;;4.24;79.21;97230.13;5028115;28;20409;-82
2023/02/03 08:25:03;;;;;;;2.08;0.98;;;;;;;4.27;79.34;97241.19;5020442;28;20049;-80
2023/02/03 08:27:31;;;;;;;2.20;0.77;;;;;;;4.38;77.74;97253.69;5017914;28;20046;-80
2023/02/03 08:29:58;;;;;;;1.60;0.80;;;;;;;4.44;76.87;97251.88;5028848;28;20126;-83
2023/02/03 08:32:24;;;;;;;2.85;0.80;;;;;;;4.41;77.91;97250.50;5018614;28;20052;-78
2023/02/03 08:34:52;;;;;;;1.15;0.70;;;;;;;4.45;77.48;97243.53;5023669;28;20054;-80
2023/02/03 08:37:23;;;;;;;1.73;0.75;;;;;;;4.43;77.64;97226.78;5021942;28;20037;-78
2023/02/03 08:39:49;;;;;;;3.13;0.70;;;;;;;4.49;76.83;97232.22;5020687;28;20489;-79
2023/02/03 08:42:16;;;;;;;3.40;1.00;;;;;;;4.55;75.76;97231.22;5021267;28;20481;-79
2023/02/03 08:44:43;;;;;;;2.30;0.70;;;;;;;4.57;75.38;97229.06;5016566;28;20053;-78
2023/02/03 08:47:10;;;;;;;3.00;1.02;;;;;;;4.58;75.58;97225.28;5021686;28;20037;-79
2023/02/03 08:49:38;;;;;;;3.55;1.00;;;;;;;4.57;76.15;97226.34;5013844;28;20053;-76
2023/02/03 08:52:05;;;;;;;2.03;0.80;;;;;;;4.59;76.02;97230.41;5016560;28;20125;-81
2023/02/03 08:54:34;;;;;;;1.50;0.60;;;;;;;4.58;76.18;97214.50;5023294;28;20054;-78
2023/02/03 08:57:00;;;;;;;2.75;0.85;;;;;;;4.67;74.04;97204.84;5023231;28;20038;-78
2023/02/03 08:59:28;;;;;;;1.73;0.80;;;;;;;4.66;74.65;97205.94;5015430;28;20046;-79
2023/02/03 09:01:54;;;;;;;2.30;0.80;;;;;;;4.67;74.23;97229.13;5021166;28;20060;-79
2023/02/03 09:04:23;;;;;;;7.75;2.45;;;;;;;4.66;74.83;97224.81;5017262;28;20587;-82
2023/02/03 09:06:50;;;;;;;1.70;0.85;;;;;;;4.71;73.98;97231.06;5025500;28;20042;-78
2023/02/03 09:09:16;;;;;;;1.38;0.82;;;;;;;4.68;74.48;97225.34;5028061;28;20390;-81
2023/02/03 09:11:44;;;;;;;2.75;0.80;;;;;;;4.67;74.24;97218.34;5028747;28;20048;-80
2023/02/03 09:14:11;;;;;;;1.08;0.60;;;;;;;4.68;74.25;97209.97;5021195;28;20409;-79
2023/02/03 09:16:37;;;;;;;2.38;0.63;;;;;;;4.74;73.96;97200.03;5019417;28;20049;-83
2023/02/03 09:19:04;;;;;;;2.70;0.70;;;;;;;4.76;74.18;97203.31;5012713;28;20050;-84
2023/02/03 09:21:30;;;;;;;1.73;0.90;;;;;;;4.80;72.59;97190.09;5023203;28;20045;-76
2023/02/03 09:24:00;;;;;;;2.00;0.70;;;;;;;4.80;73.89;97184.69;5027422;28;20053;-78
2023/02/03 09:26:27;;;;;;;2.08;0.75;;;;;;;4.82;73.30;97188.75;5030531;28;20143;-77
2023/02/03 09:28:55;;;;;;;2.25;0.80;;;;;;;4.83;73.23;97190.38;5016138;28;20049;-78
2023/02/03 09:31:21;;;;;;;1.70;0.88;;;;;;;4.88;73.40;97198.50;5019379;28;20831;-76
2023/02/03 09:33:48;;;;;;;1.38;0.52;;;;;;;4.84;73.26;97202.00;5018049;28;20034;-78
2023/02/03 09:36:15;;;;;;;1.77;0.60;;;;;;;4.85;73.18;97209.81;5022197;28;20692;-77
2023/02/03 09:38:41;;;;;;;1.52;0.80;;;;;;;4.89;72.31;97170.44;5021724;28;20045;-79
2023/02/03 09:41:19;;;;;;;1.88;0.70;;;;;;;4.91;72.20;97184.50;5028253;28;20064;-77
2023/02/03 09:43:50;;;;;;;1.98;0.60;;;;;;;4.89;72.64;97186.63;5022779;28;20046;-78
2023/02/03 09:46:21;;;;;;;2.22;0.70;;;;;;;4.96;72.52;97194.53;5012761;28;20519;-78
2023/02/03 09:48:52;;;;;;;2.40;0.65;;;;;;;4.97;71.74;97202.34;5021635;28;20041;-78
2023/02/03 09:51:20;;;;;;;2.38;0.80;;;;;;;5.02;72.01;97182.69;5018964;28;20050;-78
2023/02/03 09:53:53;;;;;;;1.92;0.80;;;;;;;5.02;72.36;97192.66;5018230;28;20037;-78
2023/02/03 09:56:26;;;;;;;2.55;0.65;;;;;;;5.02;71.52;97192.66;5023214;28;20044;-76
2023/02/03 09:58:53;;;;;;;2.38;0.85;;;;;;;5.04;71.69;97171.63;5021993;28;20050;-77
2023/02/03 10:01:25;;;;;;;1.55;0.60;;;;;;;5.12;71.10;97211.63;5024908;28;20087;-79
2023/02/03 10:03:59;;;;;;;2.53;0.90;;;;;;;5.11;71.00;97194.59;5025961;28;20041;-82
2023/02/03 10:06:32;;;;;;;2.72;0.88;;;;;;;5.12;71.34;97181.94;5016234;28;20405;-80
2023/02/03 10:09:24;;;;;;;2.17;0.80;;;;;;;5.14;71.73;97198.66;5019179;28;20413;-78
2023/02/03 10:12:06;;;;;;;1.13;0.60;;;;;;;5.14;71.32;97179.75;5020354;28;20042;-79
2023/02/03 10:14:48;;;;;;;1.05;0.70;;;;;;;5.14;71.78;97204.88;5019067;28;20042;-77
2023/02/03 10:17:29;;;;;;;2.38;0.93;;;;;;;5.12;71.54;97215.13;5026290;28;20699;-78
2023/02/03 10:20:00;;;;;;;1.42;0.80;;;;;;;5.15;72.09;97200.28;5027381;28;20490;-77
2023/02/03 10:22:31;;;;;;;3.30;0.85;;;;;;;5.12;71.01;97187.31;5030568;28;20509;-76
2023/02/03 10:25:03;;;;;;;2.53;0.80;;;;;;;5.13;70.68;97181.66;5025441;28;20064;-77
2023/02/03 10:27:31;;;;;;;2.63;0.90;;;;;;;5.16;70.73;97194.59;5016623;28;20064;-79
2023/02/03 10:30:04;;;;;;;3.60;1.10;;;;;;;5.18;71.44;97180.88;5033671;28;20042;-80
2023/02/03 10:32:32;;;;;;;1.98;0.68;;;;;;;5.20;70.81;97189.50;5034528;28;20045;-77
2023/02/03 10:35:01;;;;;;;1.65;0.90;;;;;;;5.22;70.71;97181.97;5028597;28;20052;-78
2023/02/03 10:37:30;;;;;;;3.38;0.90;;;;;;;5.23;71.09;97189.81;5037348;28;20065;-77
2023/02/03 10:39:59;;;;;;;1.80;0.68;;;;;;;5.26;70.53;97199.25;5029761;28;20520;-76
2023/02/03 10:43:46;;;;;;;1.23;0.80;;;;;;;5.28;71.12;97177.41;5029034;28;20037;-76
2023/02/03 10:45:13;;;;;;;2.72;0.95;;;;;;;5.29;70.80;97182.53;5024449;28;20508;-79
2023/02/03 10:47:45;;;;;;;3.60;1.00;;;;;;;5.26;70.73;97166.84;5024105;28;20042;-75
2023/02/03 10:50:16;;;;;;;2.30;0.95;;;;;;;5.33;70.45;97162.03;5018626;28;20039;-77
2023/02/03 10:52:43;;;;;;;3.25;0.95;;;;;;;5.41;70.35;97185.81;5019796;28;20057;-78
2023/02/03 10:55:31;;;;;;;2.38;1.08;;;;;;;5.33;71.16;97167.44;5018548;28;20042;-75
2023/02/03 10:57:58;;;;;;;2.55;1.00;;;;;;;5.40;70.92;97189.59;5030563;28;20046;-77
2023/02/03 11:00:30;;;;;;;4.65;1.05;;;;;;;5.44;71.60;97184.50;5021199;28;20037;-78
2023/02/03 11:03:05;;;;;;;3.15;1.13;;;;;;;5.35;70.65;97180.66;5026649;28;20038;-78
2023/02/03 11:05:32;;;;;;;5.07;1.52;;;;;;;5.45;70.77;97178.00;5035512;28;20041;-79
2023/02/03 11:07:59;;;;;;;1.30;0.77;;;;;;;5.46;71.76;97176.91;5030478;28;20053;-77
2023/02/03 11:10:35;;;;;;;3.72;1.20;;;;;;;5.39;70.60;97163.66;5021847;28;20121;-78
2023/02/03 11:13:15;;;;;;;3.30;0.95;;;;;;;5.35;71.07;97154.47;5020878;28;20307;-78
2023/02/03 11:15:52;;;;;;;3.53;1.15;;;;;;;5.35;72.34;97143.66;5023745;28;20038;-77
2023/02/03 11:18:38;;;;;;;2.83;1.00;;;;;;;5.40;72.25;97135.56;5019229;28;20055;-77
2023/02/03 11:21:10;;;;;;;4.22;1.05;;;;;;;5.44;70.51;97138.56;5030002;28;20053;-78
2023/02/03 11:23:43;;;;;;;2.30;0.85;;;;;;;5.48;71.60;97143.19;5032705;28;20052;-78
2023/02/03 11:26:14;;;;;;;2.58;0.98;;;;;;;5.54;71.39;97135.09;5025861;28;20046;-77
2023/02/03 11:28:46;;;;;;;4.57;1.40;;;;;;;5.49;71.52;97128.59;5021311;28;20072;-77
2023/02/03 11:31:20;;;;;;;2.03;1.00;;;;;;;5.44;70.32;97128.56;5028790;28;20047;-75
2023/02/03 11:33:51;;;;;;;2.15;0.80;;;;;;;5.42;70.81;97173.94;5027642;28;20295;-75
2023/02/03 11:36:18;;;;;;;2.22;1.10;;;;;;;5.44;71.43;97125.88;5028030;28;20050;-75
2023/02/03 11:38:44;;;;;;;2.88;0.82;;;;;;;5.49;71.15;97134.00;5018512;28;20107;-76
2023/02/03 11:41:19;;;;;;;3.22;1.05;;;;;;;5.47;70.81;97141.53;5028473;28;20053;-75
2023/02/03 11:43:46;;;;;;;3.85;1.25;;;;;;;5.46;71.03;97139.91;5024547;28;20045;-75
2023/02/03 11:46:13;;;;;;;2.85;1.23;;;;;;;5.37;71.99;97125.28;5020161;28;20045;-76
2023/02/03 11:48:54;;;;;;;3.30;1.15;;;;;;;5.37;71.20;97113.69;5025144;28;20045;-76
2023/02/03 11:51:33;;;;;;;1.92;1.00;;;;;;;5.42;71.15;97111.81;5016505;28;20042;-77
2023/02/03 11:54:16;;;;;;;2.80;1.25;;;;;;;5.45;71.05;97105.88;5022552;28;20042;-76